createdAt,value
2022-11-25T00:01:46.068Z,90.70
2022-11-25T00:04:17.727Z,91.00
2022-11-25T00:09:22.768Z,99.90
2022-11-25T00:11:54.347Z,92.00
2022-11-25T00:14:25.980Z,92.20
2022-11-25T00:16:58.987Z,98.70
2022-11-25T00:19:30.857Z,99.90
2022-11-25T00:29:41.526Z,99.90
2022-11-25T00:32:16.547Z,99.90
2022-11-25T00:34:48.162Z,99.90
2022-11-25T00:37:19.749Z,98.90
2022-11-25T00:39:51.628Z,99.90
2022-11-25T00:45:16.372Z,99.90
2022-11-25T00:47:49.310Z,99.50
2022-11-25T00:50:20.909Z,95.10
2022-11-25T00:52:52.513Z,95.40
2022-11-25T00:55:24.135Z,95.60
2022-11-25T00:57:55.886Z,95.70
2022-11-25T01:00:27.486Z,95.90
2022-11-25T01:03:00.442Z,96.10
2022-11-25T01:05:32.486Z,96.30
2022-11-25T01:08:04.274Z,96.70
2022-11-25T01:10:35.872Z,97.20
2022-11-25T01:13:07.522Z,97.70
2022-11-25T01:15:39.142Z,98.10
2022-11-25T01:18:12.075Z,98.30
2022-11-25T01:20:43.731Z,98.50
2022-11-25T01:23:15.360Z,98.70
2022-11-25T01:25:46.961Z,98.80
2022-11-25T01:28:18.584Z,98.90
2022-11-25T01:30:58.468Z,99.00
2022-11-25T01:33:34.531Z,99.10
2022-11-25T01:36:07.379Z,99.10
2022-11-25T01:38:39.326Z,99.30
2022-11-25T01:41:12.050Z,99.20
2022-11-25T01:43:43.690Z,99.20
2022-11-25T01:46:20.556Z,99.90
2022-11-25T01:48:55.089Z,99.90
2022-11-25T01:51:28.135Z,99.90
2022-11-25T01:54:02.574Z,99.90
2022-11-25T01:56:37.268Z,99.90
2022-11-25T01:59:08.997Z,99.90
2022-11-25T02:01:40.795Z,99.90
2022-11-25T02:04:14.703Z,99.90
2022-11-25T02:06:49.244Z,99.90
2022-11-25T02:09:21.434Z,99.90
2022-11-25T02:11:53.220Z,99.90
2022-11-25T02:14:25.549Z,99.90
2022-11-25T02:19:36.421Z,99.90
2022-11-25T02:22:11.980Z,99.90
2022-11-25T02:24:45.240Z,99.90
2022-11-25T02:27:19.091Z,99.90
2022-11-25T02:29:51.780Z,99.90
2022-11-25T02:32:23.472Z,99.90
2022-11-25T02:34:55.089Z,99.90
2022-11-25T02:37:27.492Z,99.90
2022-11-25T02:39:59.090Z,99.90
2022-11-25T02:45:09.590Z,99.90
2022-11-25T02:47:41.216Z,99.90
2022-11-25T02:50:13.824Z,99.90
2022-11-25T02:52:45.535Z,99.90
2022-11-25T02:55:17.278Z,99.90
2022-11-25T02:57:48.908Z,99.90
2022-11-25T03:00:22.121Z,99.90
2022-11-25T03:02:54.563Z,99.90
2022-11-25T03:05:26.272Z,99.90
2022-11-25T03:07:57.939Z,99.90
2022-11-25T03:10:29.711Z,99.90
2022-11-25T03:13:01.549Z,99.90
2022-11-25T03:15:34.941Z,99.90
2022-11-25T03:18:07.393Z,99.90
2022-11-25T03:20:39.033Z,99.90
2022-11-25T03:23:10.777Z,99.90
2022-11-25T03:25:42.373Z,99.90
2022-11-25T03:28:14.076Z,99.90
2022-11-25T03:30:47.017Z,99.90
2022-11-25T03:33:18.733Z,99.90
2022-11-25T03:35:50.322Z,99.90
2022-11-25T03:38:21.962Z,99.90
2022-11-25T03:40:53.602Z,99.90
2022-11-25T03:43:25.229Z,99.90
2022-11-25T03:45:58.200Z,99.90
2022-11-25T03:48:29.891Z,99.90
2022-11-25T03:51:01.491Z,99.90
2022-11-25T03:53:33.091Z,99.90
2022-11-25T03:56:04.962Z,99.90
2022-11-25T03:58:36.640Z,99.90
2022-11-25T04:01:09.699Z,99.90
2022-11-25T04:03:41.463Z,99.90
2022-11-25T04:06:13.045Z,99.90
2022-11-25T04:08:44.642Z,99.90
2022-11-25T04:11:16.565Z,99.90
2022-11-25T04:13:48.223Z,99.90
2022-11-25T04:16:23.087Z,99.90
2022-11-25T04:18:54.741Z,99.90
2022-11-25T04:21:26.455Z,99.90
2022-11-25T04:23:58.078Z,99.90
2022-11-25T04:26:29.680Z,99.90
2022-11-25T04:29:01.415Z,99.90
2022-11-25T04:31:34.504Z,99.90
2022-11-25T04:34:06.158Z,99.90
2022-11-25T04:36:37.845Z,99.90
2022-11-25T04:39:09.511Z,99.90
2022-11-25T04:41:41.097Z,99.90
2022-11-25T04:44:12.729Z,99.90
2022-11-25T04:46:45.850Z,99.90
2022-11-25T04:49:17.526Z,99.90
2022-11-25T04:51:49.127Z,99.90
2022-11-25T04:54:20.735Z,99.90
2022-11-25T04:56:52.322Z,99.90
2022-11-25T04:59:39.520Z,99.90
2022-11-25T05:02:15.034Z,99.90
2022-11-25T05:04:47.548Z,99.90
2022-11-25T05:07:20.172Z,99.90
2022-11-25T05:09:51.990Z,99.90
2022-11-25T05:12:24.373Z,99.90
2022-11-25T05:14:56.134Z,99.90
2022-11-25T05:17:30.135Z,99.90
2022-11-25T05:20:01.856Z,99.90
2022-11-25T05:22:34.149Z,99.90
2022-11-25T05:25:06.320Z,99.90
2022-11-25T05:27:37.933Z,99.90
2022-11-25T05:30:09.936Z,99.90
2022-11-25T05:32:44.236Z,99.90
2022-11-25T05:35:16.005Z,99.90
2022-11-25T05:37:47.658Z,99.90
2022-11-25T05:40:19.406Z,99.90
2022-11-25T05:42:51.174Z,99.90
2022-11-25T05:45:22.810Z,99.90
2022-11-25T05:47:56.042Z,99.90
2022-11-25T05:50:27.668Z,99.90
2022-11-25T05:52:59.269Z,99.90
2022-11-25T05:55:30.883Z,99.90
2022-11-25T05:58:03.036Z,99.90
2022-11-25T06:00:34.884Z,99.90
2022-11-25T06:03:07.932Z,99.90
2022-11-25T06:05:41.139Z,99.90
2022-11-25T06:08:12.778Z,99.90
2022-11-25T06:10:44.389Z,99.90
2022-11-25T06:13:15.978Z,99.90
2022-11-25T06:15:47.762Z,99.90
2022-11-25T06:18:20.820Z,99.90
2022-11-25T06:20:58.742Z,99.90
2022-11-25T06:23:31.420Z,99.90
2022-11-25T06:26:04.143Z,99.90
2022-11-25T06:28:36.082Z,99.90
2022-11-25T06:31:08.141Z,99.90
2022-11-25T06:33:41.407Z,99.90
2022-11-25T06:36:17.069Z,99.90
2022-11-25T06:38:50.372Z,99.90
2022-11-25T06:41:22.721Z,99.90
2022-11-25T06:43:54.326Z,99.90
2022-11-25T06:46:25.979Z,99.90
2022-11-25T06:49:00.366Z,99.90
2022-11-25T06:51:31.970Z,99.90
2022-11-25T06:54:03.708Z,99.90
2022-11-25T06:56:35.369Z,99.90
2022-11-25T06:59:07.031Z,99.90
2022-11-25T07:01:39.145Z,99.90
2022-11-25T07:04:12.229Z,99.90
2022-11-25T07:06:43.865Z,99.90
2022-11-25T07:09:15.478Z,99.90
2022-11-25T07:11:47.183Z,99.90
2022-11-25T07:14:18.826Z,99.90
2022-11-25T07:16:50.435Z,99.90
2022-11-25T07:19:23.530Z,99.90
2022-11-25T07:21:55.157Z,99.90
2022-11-25T07:24:26.915Z,99.90
2022-11-25T07:26:58.526Z,99.90
2022-11-25T07:29:51.940Z,99.90
2022-11-25T07:32:22.628Z,99.90
2022-11-25T07:34:55.635Z,99.90
2022-11-25T07:37:27.695Z,99.90
2022-11-25T07:39:59.320Z,99.90
2022-11-25T07:42:30.902Z,99.90
2022-11-25T07:45:02.502Z,99.90
2022-11-25T07:47:35.573Z,99.90
2022-11-25T07:50:09.320Z,99.90
2022-11-25T07:52:41.028Z,99.90
2022-11-25T07:55:12.669Z,99.90
2022-11-25T07:57:44.251Z,99.90
2022-11-25T08:00:16.422Z,99.90
2022-11-25T08:02:48.091Z,99.90
2022-11-25T08:05:21.123Z,99.90
2022-11-25T08:07:52.822Z,99.90
2022-11-25T08:10:27.662Z,99.90
2022-11-25T08:12:59.320Z,99.90
2022-11-25T08:15:32.069Z,99.90
2022-11-25T08:18:08.781Z,99.90
2022-11-25T08:20:41.838Z,99.90
2022-11-25T08:23:13.460Z,99.90
2022-11-25T08:25:50.271Z,99.90
2022-11-25T08:28:22.314Z,99.90
2022-11-25T08:31:00.931Z,99.90
2022-11-25T08:33:32.858Z,99.90
2022-11-25T08:36:06.423Z,99.90
2022-11-25T08:38:38.103Z,99.90
2022-11-25T08:41:10.899Z,99.90
2022-11-25T08:43:42.719Z,99.90
2022-11-25T08:46:15.985Z,99.90
2022-11-25T08:48:47.643Z,99.90
2022-11-25T08:51:21.995Z,99.90
2022-11-25T08:53:53.693Z,99.90
2022-11-25T08:56:26.561Z,99.90
2022-11-25T08:59:00.007Z,99.90
2022-11-25T09:01:31.953Z,99.90
2022-11-25T09:04:09.485Z,99.90
2022-11-25T09:06:42.442Z,99.90
2022-11-25T09:09:14.118Z,99.90
2022-11-25T09:11:45.968Z,99.90
2022-11-25T09:14:17.707Z,99.90
2022-11-25T09:16:49.879Z,99.90
2022-11-25T09:19:21.566Z,99.90
2022-11-25T09:21:54.783Z,99.90
2022-11-25T09:24:26.400Z,99.90
2022-11-25T09:26:58.144Z,99.90
2022-11-25T09:29:30.867Z,99.90
2022-11-25T09:32:02.566Z,99.90
2022-11-25T09:34:34.428Z,99.90
2022-11-25T09:37:07.642Z,99.90
2022-11-25T09:39:39.507Z,99.90
2022-11-25T09:42:39.730Z,99.90
2022-11-25T09:45:34.445Z,99.90
2022-11-25T09:48:12.569Z,99.90
2022-11-25T09:50:52.442Z,99.90
2022-11-25T09:53:35.375Z,99.90
2022-11-25T09:56:11.372Z,99.90
2022-11-25T09:58:47.140Z,99.90
2022-11-25T10:01:20.812Z,99.90
2022-11-25T10:03:55.595Z,99.90
2022-11-25T10:06:28.500Z,99.90
2022-11-25T10:09:03.400Z,99.90
2022-11-25T10:11:42.803Z,99.90
2022-11-25T10:14:18.185Z,99.90
2022-11-25T10:16:51.864Z,99.90
2022-11-25T10:19:26.230Z,99.90
2022-11-25T10:21:57.911Z,99.90
2022-11-25T10:24:30.888Z,99.90
2022-11-25T10:27:06.049Z,99.90
2022-11-25T10:29:38.076Z,99.90
2022-11-25T10:32:16.039Z,99.90
2022-11-25T10:34:49.477Z,99.90
2022-11-25T10:37:25.394Z,99.90
2022-11-25T10:39:58.428Z,99.90
2022-11-25T10:42:32.379Z,99.90
2022-11-25T10:45:08.838Z,99.90
2022-11-25T10:47:56.868Z,99.90
2022-11-25T10:50:32.647Z,99.90
2022-11-25T10:53:12.006Z,99.90
2022-11-25T10:55:56.209Z,99.90
2022-11-25T10:58:29.419Z,99.90
2022-11-25T11:01:12.665Z,99.90
2022-11-25T11:03:44.978Z,99.90
2022-11-25T11:06:31.240Z,99.90
2022-11-25T11:09:04.350Z,99.90
2022-11-25T11:11:46.645Z,99.90
2022-11-25T11:14:20.219Z,99.90
2022-11-25T11:16:53.081Z,99.90
2022-11-25T11:19:26.011Z,99.90
2022-11-25T11:22:13.877Z,99.90
2022-11-25T11:24:45.509Z,99.90
2022-11-25T11:27:20.678Z,99.90
2022-11-25T11:30:07.733Z,99.90
2022-11-25T11:32:41.113Z,99.90
2022-11-25T11:35:18.704Z,99.90
2022-11-25T11:37:52.590Z,99.90
2022-11-25T11:40:29.721Z,99.90
2022-11-25T11:43:08.470Z,99.90
2022-11-25T11:45:45.501Z,99.90
2022-11-25T11:48:21.200Z,99.90
2022-11-25T11:50:57.423Z,99.90
2022-11-25T11:53:31.198Z,99.90
2022-11-25T11:59:08.397Z,99.90
2022-11-25T12:01:45.458Z,99.90
2022-11-25T12:04:18.967Z,99.90
2022-11-25T12:06:55.953Z,99.90
2022-11-25T12:09:28.762Z,99.90
2022-11-25T12:12:02.550Z,99.90
2022-11-25T12:14:38.278Z,99.90
2022-11-25T12:17:14.955Z,99.90
2022-11-25T12:19:53.694Z,99.90
2022-11-25T12:22:27.200Z,99.90
2022-11-25T12:25:03.305Z,99.90
2022-11-25T12:27:36.287Z,99.90
2022-11-25T12:30:11.546Z,99.90
2022-11-25T12:32:49.556Z,99.90
2022-11-25T12:35:24.153Z,99.90
2022-11-25T12:37:59.973Z,99.90
2022-11-25T12:40:34.347Z,99.90
2022-11-25T12:43:10.854Z,99.90
2022-11-25T12:45:45.202Z,99.90
2022-11-25T12:48:21.316Z,99.90
2022-11-25T12:50:57.598Z,99.90
2022-11-25T12:53:36.042Z,99.90
2022-11-25T12:56:15.134Z,99.90
2022-11-25T12:58:51.878Z,99.90
2022-11-25T13:01:46.010Z,99.90
2022-11-25T13:04:36.845Z,99.90
2022-11-25T13:07:26.371Z,99.90
2022-11-25T13:10:15.678Z,99.90
2022-11-25T13:12:54.423Z,99.90
2022-11-25T13:15:28.695Z,99.90
2022-11-25T13:18:09.390Z,99.90
2022-11-25T13:20:50.818Z,99.90
2022-11-25T13:23:24.138Z,99.90
2022-11-25T13:26:14.670Z,99.90
2022-11-25T13:28:46.370Z,99.90
2022-11-25T13:31:19.656Z,99.90
2022-11-25T13:33:59.757Z,99.90
2022-11-25T13:36:44.632Z,99.90
2022-11-25T13:39:17.569Z,99.90
2022-11-25T13:41:50.099Z,99.90
2022-11-25T13:44:24.327Z,99.90
2022-11-25T13:46:58.171Z,99.90
2022-11-25T13:49:36.322Z,99.90
2022-11-25T13:52:27.866Z,99.90
2022-11-25T13:55:00.526Z,99.90
2022-11-25T13:57:34.588Z,99.90
2022-11-25T14:00:07.209Z,99.90
2022-11-25T14:02:44.822Z,99.90
2022-11-25T14:05:33.631Z,99.90
2022-11-25T14:08:10.836Z,99.90
2022-11-25T14:10:45.859Z,99.90
2022-11-25T14:13:22.739Z,99.90
2022-11-25T14:16:06.490Z,99.90
2022-11-25T14:19:21.886Z,99.90
2022-11-25T14:21:52.093Z,99.90
2022-11-25T14:24:29.596Z,99.90
2022-11-25T14:27:01.774Z,99.90
2022-11-25T14:29:37.708Z,99.90
2022-11-25T14:32:12.523Z,99.90
2022-11-25T14:34:46.737Z,99.90
2022-11-25T14:37:23.857Z,99.90
2022-11-25T14:39:56.469Z,99.90
2022-11-25T14:42:32.731Z,99.90
2022-11-25T14:45:19.025Z,99.90
2022-11-25T14:47:50.802Z,99.90
2022-11-25T14:50:38.849Z,99.90
2022-11-25T14:53:14.153Z,99.90
2022-11-25T14:55:47.597Z,99.90
2022-11-25T14:58:19.634Z,99.90
2022-11-25T15:00:52.447Z,99.90
2022-11-25T15:03:24.449Z,99.90
2022-11-25T15:05:57.291Z,99.90
2022-11-25T15:08:37.525Z,99.90
2022-11-25T15:11:12.917Z,99.90
2022-11-25T15:13:45.563Z,99.90
2022-11-25T15:16:18.638Z,99.90
2022-11-25T15:18:51.436Z,99.90
2022-11-25T15:21:26.542Z,99.90
2022-11-25T15:23:59.631Z,99.90
2022-11-25T15:26:32.440Z,99.90
2022-11-25T15:29:09.844Z,99.90
2022-11-25T15:31:42.038Z,99.90
2022-11-25T15:34:14.523Z,99.90
2022-11-25T15:36:51.168Z,99.90
2022-11-25T15:39:27.706Z,99.90
2022-11-25T15:42:05.596Z,99.90
2022-11-25T15:44:40.473Z,99.90
2022-11-25T15:47:17.872Z,99.90
2022-11-25T15:50:02.088Z,99.90
2022-11-25T15:52:35.707Z,99.90
2022-11-25T15:55:18.624Z,99.90
2022-11-25T15:57:51.019Z,99.90
2022-11-25T16:00:23.272Z,99.90
2022-11-25T16:02:55.693Z,99.90
2022-11-25T16:05:29.098Z,99.90
2022-11-25T16:08:02.720Z,99.90
2022-11-25T16:10:48.932Z,99.90
2022-11-25T16:13:29.821Z,99.90
2022-11-25T16:16:12.998Z,99.90
2022-11-25T16:18:51.470Z,99.90
2022-11-25T16:21:23.866Z,99.90
2022-11-25T16:23:57.650Z,99.90
2022-11-25T16:26:32.502Z,99.90
2022-11-25T16:29:17.087Z,99.90
2022-11-25T16:31:48.851Z,99.90
2022-11-25T16:34:21.774Z,99.90
2022-11-25T16:36:56.938Z,99.90
2022-11-25T16:39:28.516Z,99.90
2022-11-25T16:42:03.993Z,99.90
2022-11-25T16:44:36.294Z,99.90
2022-11-25T16:47:09.163Z,99.90
2022-11-25T16:49:40.898Z,99.90
2022-11-25T16:52:12.814Z,99.90
2022-11-25T16:54:44.698Z,99.90
2022-11-25T16:57:20.097Z,99.90
2022-11-25T16:59:55.908Z,99.90
2022-11-25T17:02:29.153Z,99.90
2022-11-25T17:05:06.840Z,99.90
2022-11-25T17:07:38.678Z,99.90
2022-11-25T17:10:10.818Z,99.90
2022-11-25T17:12:45.091Z,99.90
2022-11-25T17:15:18.330Z,99.90
2022-11-25T17:17:50.148Z,99.90
2022-11-25T17:20:23.809Z,99.90
2022-11-25T17:22:55.679Z,99.90
2022-11-25T17:25:32.331Z,99.90
2022-11-25T17:28:09.876Z,99.90
2022-11-25T17:30:42.267Z,99.90
2022-11-25T17:33:15.893Z,99.90
2022-11-25T17:35:47.570Z,99.90
2022-11-25T17:38:20.207Z,99.90
2022-11-25T17:40:52.355Z,99.90
2022-11-25T17:43:28.115Z,99.90
2022-11-25T17:46:03.720Z,99.90
2022-11-25T17:48:36.207Z,99.90
2022-11-25T17:51:08.388Z,99.90
2022-11-25T17:53:40.601Z,99.90
2022-11-25T17:56:17.212Z,99.90
2022-11-25T17:58:50.848Z,99.90
2022-11-25T18:01:22.520Z,99.90
2022-11-25T18:03:54.203Z,99.90
2022-11-25T18:06:25.786Z,99.90
2022-11-25T18:08:57.383Z,99.90
2022-11-25T18:11:28.999Z,99.90
2022-11-25T18:14:01.938Z,99.90
2022-11-25T18:16:35.321Z,99.80
2022-11-25T18:19:10.225Z,99.70
2022-11-25T18:21:41.840Z,99.60
2022-11-25T18:24:13.442Z,99.40
2022-11-25T18:26:47.218Z,99.20
2022-11-25T18:29:24.640Z,99.00
2022-11-25T18:31:56.673Z,98.70
2022-11-25T18:34:28.452Z,98.70
2022-11-25T18:37:00.912Z,98.60
2022-11-25T18:39:32.533Z,98.40
2022-11-25T18:42:05.448Z,98.30
2022-11-25T18:44:43.460Z,98.40
2022-11-25T18:47:15.301Z,98.20
2022-11-25T18:49:50.982Z,98.20
2022-11-25T18:52:25.715Z,98.10
2022-11-25T18:54:57.363Z,98.00
2022-11-25T18:57:29.053Z,97.80
2022-11-25T19:00:31.753Z,97.50
2022-11-25T19:02:53.754Z,97.50
2022-11-25T19:05:28.286Z,97.20
2022-11-25T19:08:00.287Z,97.10
2022-11-25T19:10:35.228Z,97.10
2022-11-25T19:13:08.273Z,97.30
2022-11-25T19:15:41.815Z,97.00
2022-11-25T19:18:15.734Z,97.30
2022-11-25T19:20:47.346Z,97.20
2022-11-25T19:23:22.635Z,97.10
2022-11-25T19:25:54.787Z,97.40
2022-11-25T19:28:26.894Z,97.10
2022-11-25T19:31:00.621Z,97.10
2022-11-25T19:33:34.074Z,97.00
2022-11-25T19:36:06.309Z,97.10
2022-11-25T19:38:37.926Z,97.30
2022-11-25T19:41:09.531Z,97.10
2022-11-25T19:43:41.135Z,97.40
2022-11-25T19:46:29.114Z,97.20
2022-11-25T19:49:02.887Z,97.20
2022-11-25T19:51:34.781Z,97.30
2022-11-25T19:54:09.077Z,97.00
2022-11-25T19:56:41.253Z,96.70
2022-11-25T19:59:12.950Z,96.80
2022-11-25T20:01:46.293Z,96.50
2022-11-25T20:04:19.609Z,96.70
2022-11-25T20:06:51.266Z,96.60
2022-11-25T20:09:22.859Z,96.60
2022-11-25T20:11:58.540Z,96.60
2022-11-25T20:14:34.645Z,96.60
2022-11-25T20:17:12.223Z,96.60
2022-11-25T20:19:43.994Z,96.60
2022-11-25T20:22:16.374Z,96.70
2022-11-25T20:24:48.003Z,96.70
2022-11-25T20:27:20.301Z,96.60
2022-11-25T20:29:51.996Z,96.50
2022-11-25T20:32:28.072Z,96.40
2022-11-25T20:34:59.923Z,96.40
2022-11-25T20:37:40.384Z,96.40
2022-11-25T20:40:15.027Z,96.30
2022-11-25T20:42:47.251Z,96.20
2022-11-25T20:45:20.348Z,96.10
2022-11-25T20:47:53.638Z,96.20
2022-11-25T20:50:25.502Z,96.20
2022-11-25T20:52:57.180Z,96.20
2022-11-25T20:55:28.940Z,95.90
2022-11-25T20:58:01.060Z,95.90
2022-11-25T21:00:32.766Z,95.90
2022-11-25T21:03:06.146Z,95.80
2022-11-25T21:05:37.854Z,95.70
2022-11-25T21:08:12.263Z,95.70
2022-11-25T21:10:44.020Z,95.60
2022-11-25T21:13:16.953Z,95.70
2022-11-25T21:15:53.290Z,95.60
2022-11-25T21:18:26.324Z,95.50
2022-11-25T21:20:58.183Z,95.40
2022-11-25T21:23:32.013Z,95.30
2022-11-25T21:26:04.765Z,95.20
2022-11-25T21:28:53.855Z,95.30
2022-11-25T21:31:25.899Z,95.30
2022-11-25T21:34:00.780Z,95.40
2022-11-25T21:36:32.840Z,95.40
2022-11-25T21:39:06.773Z,95.30
2022-11-25T21:41:38.566Z,95.40
2022-11-25T21:44:11.387Z,95.40
2022-11-25T21:46:43.055Z,95.40
2022-11-25T21:49:16.085Z,95.50
2022-11-25T21:51:47.805Z,95.60
2022-11-25T21:54:19.443Z,95.80
2022-11-25T21:56:52.256Z,96.10
2022-11-25T21:59:24.326Z,96.20
2022-11-25T22:01:56.667Z,96.40
2022-11-25T22:04:29.894Z,96.60
2022-11-25T22:07:01.507Z,96.70
2022-11-25T22:09:33.139Z,96.80
2022-11-25T22:12:05.239Z,96.90
2022-11-25T22:14:38.204Z,97.00
2022-11-25T22:17:13.095Z,97.10
2022-11-25T22:19:46.128Z,97.20
2022-11-25T22:22:17.922Z,97.40
2022-11-25T22:24:49.608Z,97.60
2022-11-25T22:27:22.383Z,97.70
2022-11-25T22:29:54.320Z,97.80
2022-11-25T22:32:26.156Z,97.80
2022-11-25T22:34:59.215Z,97.90
2022-11-25T22:37:31.275Z,97.90
2022-11-25T22:40:03.099Z,97.90
2022-11-25T22:42:34.795Z,97.90
2022-11-25T22:45:07.857Z,98.00
2022-11-25T22:47:40.969Z,98.00
2022-11-25T22:50:18.354Z,97.90
2022-11-25T22:52:50.591Z,97.90
2022-11-25T22:55:23.591Z,97.90
2022-11-25T22:57:56.395Z,97.80
2022-11-25T23:00:28.832Z,97.80
2022-11-25T23:03:00.815Z,97.70
2022-11-25T23:05:35.841Z,97.60
2022-11-25T23:08:11.124Z,97.50
2022-11-25T23:10:42.881Z,97.50
2022-11-25T23:13:15.863Z,97.30
2022-11-25T23:15:49.090Z,97.20
2022-11-25T23:18:24.646Z,97.10
2022-11-25T23:20:57.723Z,97.10
2022-11-25T23:23:29.762Z,97.00
2022-11-25T23:26:01.359Z,97.00
2022-11-25T23:28:32.949Z,96.90
2022-11-25T23:31:04.638Z,97.00
2022-11-25T23:33:37.889Z,97.00
2022-11-25T23:36:13.155Z,96.90
2022-11-25T23:38:46.427Z,96.70
2022-11-25T23:41:20.095Z,96.70
2022-11-25T23:43:51.790Z,96.60
2022-11-25T23:46:25.021Z,96.50
2022-11-25T23:48:57.599Z,96.50
2022-11-25T23:51:30.642Z,96.60
2022-11-25T23:54:02.381Z,96.60
2022-11-25T23:56:33.985Z,96.60
2022-11-25T23:59:09.782Z,96.50
